• Join FlightAware (Why Join?)
  • Login
  • US Flag 
03:55PM EST


 

Airport Tracker/Info


-or-


 

Live Flight TrackerFlight Track Log ✈ SWA2122 ✈ 06-Apr-2013 ✈ KBNA - KFLL

Flight Track Log - Related Links

Times and Time Zones

All times are in EDT time to prevent confusion due to time zone crossing. See the SWA2122 flight status page for this flight to view local times or setup timezone preferences in your user account.

Time Position Orientation Groundspeed Altitude Reporting Facility
EDT Latitude Longitude Course Direction KTS MPH feet Rate Location/Type
11:40AM 36.1000 -86.6833 219° Southwest 185 213 1,100  Level Nashville TRACON
11:40AM 36.0833 -86.7000 219° Southwest 199 229 1,700 2,760 Climbing Nashville TRACON
11:41AM 36.0167 -86.6833 169° South 249 287 4,700 3,300 Climbing Nashville TRACON
11:42AM 35.9500 -86.6667 169° South 270 311 8,400 3,180 Climbing Nashville TRACON
11:43AM 35.9067 -86.6383 152° Southeast 287 330 9,800 2,160 Climbing Memphis Center
11:44AM 35.8381 -86.5725 142° Southeast 361 415 11,900 2,340 Climbing Memphis Center
11:45AM 35.7608 -86.5042 144° Southeast 361 415 14,500 2,700 Climbing Memphis Center
11:46AM 35.6694 -86.4497 154° Southeast 366 421 17,300 2,400 Climbing Memphis Center
11:47AM 35.5647 -86.4292 171° South 370 426 19,400 2,220 Climbing Memphis Center
11:48AM 35.4597 -86.4061 170° South 388 447 21,800 1,440 Climbing Memphis Center
11:49AM 35.2694 -86.3256 161° South 399 459 23,300 1,380 Climbing Atlanta Center
11:50AM 35.1619 -86.2694 157° South 424 488 25,600 1,920 Climbing Atlanta Center
11:51AM 35.0525 -86.2081 155° Southeast 424 488 27,200 1,380 Climbing Atlanta Center
11:52AM 34.9386 -86.1544 159° South 431 496 28,400 1,380 Climbing Atlanta Center
11:53AM 34.8244 -86.1086 162° South 438 504 30,000 1,440 Climbing Atlanta Center
11:54AM 34.7106 -86.0603 161° South 438 504 31,400 1,380 Climbing Atlanta Center
11:55AM 34.5967 -86.0094 160° South 443 510 32,800 1,260 Climbing Atlanta Center
11:56AM 34.4867 -85.9642 161° South 438 504 34,000 900 Climbing Atlanta Center
11:57AM 34.3706 -85.9136 160° South 438 504 34,600 480 Climbing Atlanta Center
11:58AM 34.2525 -85.8658 162° South 438 504 35,000 180 Climbing Atlanta Center
11:59AM 34.1383 -85.8158 160° South 443 510 35,000  Level Atlanta Center
12:00PM 34.0200 -85.7706 162° South 443 510 35,000  Level Atlanta Center
12:01PM 33.9100 -85.7233 160° South 443 510 35,000  Level Atlanta Center
12:02PM 33.7833 -85.6708 161° South 457 526 35,000  Level Atlanta Center
12:03PM 33.6631 -85.6211 161° South 462 532 35,000  Level Atlanta Center
12:04PM 33.5447 -85.5742 162° South 462 532 35,000  Level Atlanta Center
12:05PM 33.4222 -85.5222 161° South 462 532 35,000  Level Atlanta Center
12:06PM 33.3036 -85.4756 162° South 457 526 35,000  Level Atlanta Center
12:07PM 33.1811 -85.4264 161° South 457 526 35,000  Level Atlanta Center
12:08PM 33.0753 -85.3825 161° South 463 533 35,000  Level Atlanta Center
12:09PM 32.9422 -85.3186 158° South 463 533 35,000  Level Atlanta Center
12:10PM 32.8217 -85.2697 161° South 465 535 35,000  Level Atlanta Center
12:11PM 32.7011 -85.2236 162° South 455 524 35,000  Level Atlanta Center
12:12PM 32.5783 -85.1728 161° South 454 522 35,000  Level Atlanta Center
12:13PM 32.4619 -85.1269 162° South 461 531 35,000  Level Atlanta Center
12:15PM 32.2672 -85.0472 161° South 485 558 35,000  Level Jacksonville Center
12:16PM 32.1469 -85.0003 162° South 475 547 35,000  Level Jacksonville Center
12:17PM 32.0225 -84.9508 161° South 469 540 35,000  Level Jacksonville Center
12:18PM 31.9042 -84.9017 161° South 462 532 35,000  Level Jacksonville Center
12:19PM 31.7797 -84.8550 162° South 462 532 35,000  Level Jacksonville Center
12:20PM 31.6572 -84.8086 162° South 462 532 35,000  Level Jacksonville Center
12:21PM 31.5369 -84.7597 161° South 462 532 35,000  Level Jacksonville Center
12:22PM 31.4164 -84.7111 161° South 462 532 35,000  Level Jacksonville Center
12:23PM 31.2939 -84.6650 162° South 462 532 35,000  Level Jacksonville Center
12:24PM 31.1589 -84.6114 161° South 462 532 35,000  Level Jacksonville Center
12:25PM 31.0364 -84.5608 161° South 468 539 35,000  Level Jacksonville Center
12:26PM 30.9139 -84.5150 162° South 468 539 35,000  Level Jacksonville Center
12:27PM 30.7914 -84.4692 162° South 468 539 35,000  Level Jacksonville Center
12:28PM 30.6708 -84.4189 160° South 462 532 35,000  Level Jacksonville Center
12:29PM 30.5731 -84.3814 162° South 462 532 35,000  Level Jacksonville Center
12:30PM 30.4467 -84.3022 152° Southeast 467 537 35,000  Level Jacksonville Center
12:31PM 30.3325 -84.2258 150° Southeast 467 537 35,000  Level Jacksonville Center
12:32PM 30.2206 -84.1569 152° Southeast 467 537 35,000  Level Jacksonville Center
12:33PM 30.1044 -84.0811 151° Southeast 467 537 35,000  Level Jacksonville Center
12:34PM 29.9758 -83.9981 151° Southeast 475 547 35,000  Level Jacksonville Center
12:35PM 29.8614 -83.9225 150° Southeast 475 547 35,000  Level Jacksonville Center
12:36PM 29.7472 -83.8494 151° Southeast 475 547 35,000  Level Jacksonville Center
12:37PM 29.6308 -83.7742 151° Southeast 475 547 35,000  Level Jacksonville Center
12:38PM 29.5125 -83.6992 151° Southeast 480 552 35,000  Level Jacksonville Center
12:39PM 29.3981 -83.6244 150° Southeast 480 552 35,000  Level Jacksonville Center
12:40PM 29.2794 -83.5472 150° Southeast 480 552 35,000  Level Jacksonville Center
12:41PM 29.1628 -83.4753 152° Southeast 485 558 35,000  Level Jacksonville Center
12:42PM 29.0464 -83.3983 150° Southeast 480 552 35,000  Level Jacksonville Center
12:43PM 28.9297 -83.3219 150° Southeast 480 552 35,000  Level Jacksonville Center
12:44PM 28.8214 -83.2314 144° Southeast 486 559 35,000  Level Jacksonville Center
12:46PM 28.6820 -83.1155 144° Southeast  Level FlightAware Approximate
12:46PM 28.6028 -83.0464 144° Southeast 492 566 35,000  Level Jacksonville Center
12:48PM 28.3733 -82.8628 145° Southeast 492 566 35,000  Level Miami Center
12:49PM 28.2644 -82.7697 143° Southeast 492 566 35,000  Level Miami Center
12:50PM 28.1556 -82.6769 143° Southeast 492 566 35,000  Level Miami Center
12:51PM 28.0467 -82.5844 143° Southeast 492 566 35,000  Level Miami Center
12:52PM 27.9331 -82.5036 148° Southeast 492 566 35,000  Level Miami Center
12:53PM 27.8078 -82.4575 162° South 471 542 35,000  Level Miami Center
12:54PM 27.6842 -82.4139 163° South 471 542 35,000 -360 Level Miami Center
12:55PM 27.5586 -82.3656 161° South 471 542 34,300 -840 Descending Miami Center
12:56PM 27.4353 -82.3222 163° South 471 542 33,400 -960 Descending Miami Center
12:57PM 27.3219 -82.2794 161° South 471 542 32,400 -1,380 Descending Miami Center
12:58PM 27.1881 -82.2314 162° South 466 536 30,700 -1,800 Descending Miami Center
12:59PM 27.0667 -82.1861 162° South 466 536 28,800 -2,040 Descending Miami Center
01:00PM 26.9575 -82.1461 162° South 466 536 26,700 -2,400 Descending Miami Center
01:01PM 26.8319 -82.1008 162° South 466 536 24,100 -2,640 Descending Miami Center
01:02PM 26.7303 -82.0267 147° Southeast 448 516 21,500 -2,400 Descending Miami Center
01:03PM 26.6589 -81.9142 125° Southeast 433 498 19,300 -2,340 Descending Miami Center
01:04PM 26.5900 -81.7975 123° Southeast 428 493 16,900 -2,280 Descending Miami Center
01:05PM 26.5264 -81.6975 125° Southeast 422 486 14,800 -1,980 Descending Miami Center
01:06PM 26.4631 -81.5950 125° Southeast 411 473 13,000 -1,680 Descending Miami Center
01:07PM 26.4014 -81.4997 126° Southeast 400 460 11,500 -1,020 Descending Miami Center
01:08PM 26.3436 -81.4072 125° Southeast 376 433 11,000 -300 Descending Miami Center
01:09PM 26.2861 -81.3125 124° Southeast 360 414 10,900 -540 Descending Miami Center
01:10PM 26.2489 -81.2300 117° Southeast 328 377 10,000 -1,200 Descending Miami Center
01:11PM 26.2053 -81.1542 123° Southeast 305 351 8,600 -1,080 Descending Miami Center
01:12PM 26.1792 -81.1139 126° Southeast 289 333 8,400 -540 Descending Miami Center
01:12PM 26.1656 -81.0789 113° Southeast 289 333 8,100 -660 Descending Miami Center
01:13PM 26.1261 -81.0033 120° Southeast 289 333 7,500 -900 Descending Miami Center
01:14PM 26.0969 -80.9261 113° Southeast 278 320 6,300 -780 Descending Miami Center
01:15PM 26.0844 -80.8517 101° East 260 299 6,000 -180 Descending Miami Center
01:16PM 26.0681 -80.7631 102° East 250 288 6,000  Level Miami Center
01:17PM 26.0717 -80.6961 87° East 243 280 6,000  Level Miami Center
01:18PM 26.0758 -80.6222 86° East 243 280 6,000  Level Miami Center
01:18PM 26.0742 -80.6014 95° East 251 289 6,000  Level Miami Center
01:19PM 26.0839 -80.5464 79° East 243 280 6,000  Level Miami Center
01:19PM 26.0783 -80.5253 106° East 243 280 6,000 -540 Level Miami Center
01:20PM 26.0794 -80.4722 89° East 235 270 5,500 -1,200 Descending Miami Center
01:20PM 26.0739 -80.4489 105° East 227 261 4,800 -1,320 Descending Miami Center
01:21PM 26.0753 -80.3889 89° East 227 261 3,900 -1,200 Descending Miami Center
01:22PM 26.0750 -80.3194 90° East 207 238 2,500 -1,140 Descending Miami Center
01:23PM 26.0739 -80.2686 91° East 170 196 1,700 -840 Descending Miami Center
01:24PM 26.0753 -80.2175 88° East 153 176 900 -720 Descending Miami Center
01:26PM 26.0902 -80.1500 180° South  Level FlightAware Approximate
01:33PM 26.0667 -80.1500 180° South  Level FlightAware Approximate